Time;durP1;ratioP1;P1;durP2;ratioP2;P2;SDS_P1;SDS_P2;PMS_P1;PMS_P2;Temp;Humidity;BMP_temperature;BMP_pressure;BME280_temperature;BME280_humidity;BME280_pressure;Samples;Min_cycle;Max_cycle;Signal;HPM_P1;HPM_P2
2023/04/03 00:01:03;;;;;;;0.35;0.20;;;;;;;4.17;100.00;102939.81;10510900;28;20082;-84
2023/04/03 00:06:08;;;;;;;0.10;0.10;;;;;;;4.17;100.00;102931.28;10531712;28;20097;-85
2023/04/03 00:11:10;;;;;;;1.23;0.22;;;;;;;4.12;100.00;102930.88;10540515;28;20040;-85
2023/04/03 00:16:12;;;;;;;0.05;0.05;;;;;;;4.05;100.00;102921.84;10508095;28;20044;-84
2023/04/03 00:21:15;;;;;;;0.38;0.10;;;;;;;4.08;100.00;102923.75;10525161;28;20449;-84
2023/04/03 00:26:17;;;;;;;0.65;0.30;;;;;;;4.07;100.00;102927.06;10513216;28;20517;-84
2023/04/03 00:31:18;;;;;;;0.00;0.00;;;;;;;3.91;100.00;102930.84;10509251;28;20499;-85
2023/04/03 00:36:20;;;;;;;0.00;0.00;;;;;;;3.89;100.00;102934.03;10521865;28;20051;-84
2023/04/03 00:41:22;;;;;;;1.70;0.50;;;;;;;3.89;100.00;102937.47;10527317;28;20435;-83
2023/04/03 00:46:24;;;;;;;0.00;0.00;;;;;;;3.79;100.00;102932.34;10521133;28;20044;-85
2023/04/03 00:51:26;;;;;;;0.00;0.00;;;;;;;3.81;100.00;102939.38;10522493;28;20048;-84
2023/04/03 00:56:30;;;;;;;0.00;0.00;;;;;;;3.73;100.00;102939.44;10522725;28;20060;-84
2023/04/03 01:01:32;;;;;;;0.25;0.00;;;;;;;3.66;100.00;102943.13;10523015;28;20519;-83
2023/04/03 01:06:36;;;;;;;0.00;0.00;;;;;;;3.44;100.00;102936.16;10507683;28;20072;-84
2023/04/03 01:11:41;;;;;;;0.00;0.00;;;;;;;3.45;100.00;102930.31;10522758;28;20047;-83
2023/04/03 01:16:43;;;;;;;0.00;0.00;;;;;;;3.33;100.00;102931.78;10522445;28;20031;-84
2023/04/03 01:22:24;;;;;;;0.00;0.00;;;;;;;3.41;100.00;102930.78;10505460;28;20044;-84
2023/04/03 01:27:25;;;;;;;0.00;0.00;;;;;;;3.31;100.00;102935.84;10520338;28;20055;-83
2023/04/03 01:32:27;;;;;;;0.20;0.20;;;;;;;3.16;100.00;102938.81;10554500;28;20048;-84
2023/04/03 01:37:29;;;;;;;0.00;0.00;;;;;;;3.39;100.00;102939.94;10522607;28;20040;-83
2023/04/03 01:42:31;;;;;;;0.43;0.22;;;;;;;3.27;100.00;102941.44;10521537;28;20063;-83
2023/04/03 01:47:33;;;;;;;0.00;0.00;;;;;;;3.16;100.00;102943.91;10520926;28;20490;-83
2023/04/03 01:52:35;;;;;;;0.22;0.22;;;;;;;3.27;100.00;102939.78;10503935;28;20139;-83
2023/04/03 01:57:37;;;;;;;0.13;0.10;;;;;;;3.12;100.00;102946.06;10505416;28;20047;-83
2023/04/03 02:02:39;;;;;;;0.28;0.22;;;;;;;3.09;100.00;102951.75;10528471;28;20113;-83
2023/04/03 02:07:41;;;;;;;0.00;0.00;;;;;;;2.95;100.00;102952.19;10512140;28;20040;-84
2023/04/03 02:12:43;;;;;;;0.20;0.20;;;;;;;2.81;100.00;102956.91;10536644;28;20046;-84
2023/04/03 02:17:44;;;;;;;0.32;0.30;;;;;;;2.80;100.00;102956.78;10502497;28;20127;-83
2023/04/03 02:22:48;;;;;;;0.00;0.00;;;;;;;2.95;100.00;102944.53;10526839;28;20048;-83
2023/04/03 02:27:50;;;;;;;0.00;0.00;;;;;;;2.97;100.00;102945.56;10526570;28;20502;-83
2023/04/03 02:32:52;;;;;;;2.08;0.30;;;;;;;2.90;100.00;102961.06;10521278;28;20051;-83
2023/04/03 02:37:54;;;;;;;0.00;0.00;;;;;;;3.02;100.00;102964.69;10515145;28;20036;-83
2023/04/03 02:42:57;;;;;;;0.00;0.00;;;;;;;2.99;100.00;102964.44;10525235;28;20047;-83
2023/04/03 02:47:59;;;;;;;0.00;0.00;;;;;;;2.82;100.00;102965.47;10531464;28;20044;-83
2023/04/03 02:53:01;;;;;;;0.00;0.00;;;;;;;2.75;100.00;102964.00;10522669;28;20048;-83
2023/04/03 02:58:03;;;;;;;0.00;0.00;;;;;;;2.77;100.00;102962.50;10522322;28;20044;-83
2023/04/03 03:03:05;;;;;;;0.10;0.10;;;;;;;2.71;100.00;102961.94;10501904;28;20047;-83
2023/04/03 03:08:07;;;;;;;0.00;0.00;;;;;;;2.54;100.00;102958.75;10518670;28;20384;-82
2023/04/03 03:13:09;;;;;;;0.05;0.03;;;;;;;2.41;100.00;102953.31;10516930;28;20074;-82
2023/04/03 03:18:11;;;;;;;1.10;0.38;;;;;;;2.47;100.00;102961.50;10552923;28;20312;-82
2023/04/03 03:23:12;;;;;;;0.00;0.00;;;;;;;2.36;100.00;102967.22;10537392;28;20040;-82
2023/04/03 03:28:14;;;;;;;0.00;0.00;;;;;;;2.41;100.00;102975.28;10520700;28;20040;-84
2023/04/03 03:33:17;;;;;;;0.00;0.00;;;;;;;2.51;100.00;102973.72;10515509;28;20048;-84
2023/04/03 03:38:19;;;;;;;2.15;0.20;;;;;;;2.35;100.00;102976.50;10542440;28;20044;-84
2023/04/03 03:43:21;;;;;;;0.10;0.10;;;;;;;2.26;100.00;102974.78;10537755;28;20060;-84
2023/04/03 03:48:25;;;;;;;0.38;0.32;;;;;;;2.18;100.00;102976.59;10513478;28;20050;-84
2023/04/03 03:53:26;;;;;;;0.50;0.50;;;;;;;2.20;100.00;102981.06;10518110;28;20093;-84
2023/04/03 03:58:32;;;;;;;0.00;0.00;;;;;;;2.17;100.00;102975.69;10515223;28;20604;-83
2023/04/03 04:03:36;;;;;;;0.00;0.00;;;;;;;2.19;100.00;102980.91;10519102;28;20051;-84
2023/04/03 04:08:39;;;;;;;0.38;0.28;;;;;;;2.16;100.00;102988.28;10518528;28;20411;-83
2023/04/03 04:13:44;;;;;;;0.00;0.00;;;;;;;2.03;100.00;102991.31;10495121;28;20486;-83
2023/04/03 04:18:48;;;;;;;0.00;0.00;;;;;;;1.98;100.00;103006.13;10497003;28;20048;-83
2023/04/03 04:23:52;;;;;;;0.10;0.03;;;;;;;1.99;100.00;103004.47;10514791;28;20067;-83
2023/04/03 04:28:57;;;;;;;0.00;0.00;;;;;;;2.12;100.00;103016.69;10547240;28;20051;-82
2023/04/03 04:33:59;;;;;;;0.00;0.00;;;;;;;1.90;100.00;103020.63;10505074;28;20403;-83
2023/04/03 04:39:01;;;;;;;0.00;0.00;;;;;;;1.72;100.00;103035.03;10498633;28;20066;-83
2023/04/03 04:44:03;;;;;;;0.00;0.00;;;;;;;1.70;100.00;103025.47;10508667;28;20047;-83
2023/04/03 04:49:06;;;;;;;0.00;0.00;;;;;;;1.66;100.00;103033.56;10522037;28;20044;-82
2023/04/03 04:54:08;;;;;;;0.00;0.00;;;;;;;1.57;100.00;103039.53;10516787;28;20407;-84
2023/04/03 04:59:11;;;;;;;0.00;0.00;;;;;;;1.62;100.00;103046.69;10527679;28;20082;-83
2023/04/03 05:04:13;;;;;;;0.35;0.35;;;;;;;1.47;100.00;103051.19;10530014;28;20090;-83
2023/04/03 05:09:16;;;;;;;0.17;0.17;;;;;;;1.32;100.00;103060.75;10515797;28;20130;-84
2023/04/03 05:14:20;;;;;;;0.10;0.10;;;;;;;1.41;100.00;103066.72;10513090;28;20128;-83
2023/04/03 05:19:22;;;;;;;0.08;0.08;;;;;;;1.43;100.00;103060.16;10517062;28;20068;-84
2023/04/03 05:24:25;;;;;;;0.00;0.00;;;;;;;1.35;100.00;103066.13;10531903;28;20059;-83
2023/04/03 05:29:27;;;;;;;0.63;0.55;;;;;;;1.44;100.00;103072.13;10515468;28;20044;-83
2023/04/03 05:34:32;;;;;;;0.25;0.10;;;;;;;1.62;100.00;103072.09;10514731;28;20288;-83
2023/04/03 05:39:35;;;;;;;0.70;0.52;;;;;;;1.47;100.00;103077.50;10515499;28;20075;-84
2023/04/03 05:44:40;;;;;;;0.00;0.00;;;;;;;1.66;100.00;103080.19;10499802;28;20040;-84
2023/04/03 05:49:42;;;;;;;0.08;0.08;;;;;;;1.67;100.00;103086.19;10509646;28;20058;-84
2023/04/03 05:54:47;;;;;;;0.38;0.30;;;;;;;1.77;100.00;103099.00;10517636;28;20441;-85
2023/04/03 05:59:55;;;;;;;0.00;0.00;;;;;;;1.94;100.00;103097.22;10524868;28;20040;-86
2023/04/03 06:04:57;;;;;;;5.28;0.63;;;;;;;2.02;100.00;103102.28;10530715;28;20043;-84
2023/04/03 06:10:02;;;;;;;0.30;0.30;;;;;;;2.10;100.00;103103.03;10524089;28;20050;-86
2023/04/03 06:15:05;;;;;;;0.28;0.28;;;;;;;2.21;100.00;103098.97;10520965;28;20089;-87
2023/04/03 06:20:07;;;;;;;0.00;0.00;;;;;;;2.20;100.00;103108.22;10521252;28;20044;-88
2023/04/03 06:25:09;;;;;;;0.00;0.00;;;;;;;2.34;100.00;103108.66;10516533;28;20146;-88
2023/04/03 06:30:12;;;;;;;0.35;0.35;;;;;;;2.63;100.00;103113.06;10539749;28;20059;-87
2023/04/03 06:35:14;;;;;;;0.00;0.00;;;;;;;2.62;100.00;103118.91;10527616;28;20063;-88
2023/04/03 06:40:21;;;;;;;3.20;0.98;;;;;;;3.11;100.00;103118.34;10547133;28;20164;-85
2023/04/03 06:45:25;;;;;;;0.25;0.20;;;;;;;3.24;100.00;103129.69;10517939;28;20495;-87
2023/04/03 06:50:27;;;;;;;0.20;0.20;;;;;;;3.39;100.00;103142.91;10495498;28;20059;-88
2023/04/03 06:55:29;;;;;;;0.00;0.00;;;;;;;3.35;100.00;103159.59;10517128;28;20044;-88
2023/04/03 07:00:31;;;;;;;0.00;0.00;;;;;;;3.71;100.00;103176.44;10510555;28;20563;-88
2023/04/03 07:05:33;;;;;;;0.22;0.22;;;;;;;3.95;100.00;103185.38;10504912;28;20040;-87
2023/04/03 07:10:35;;;;;;;0.30;0.30;;;;;;;3.95;100.00;103192.16;10516216;28;20059;-88
2023/04/03 07:15:36;;;;;;;0.00;0.00;;;;;;;4.55;100.00;103200.00;10520253;28;20048;-89
2023/04/03 07:20:39;;;;;;;0.20;0.20;;;;;;;4.27;100.00;103222.22;10521397;28;20522;-89
2023/04/03 07:25:45;;;;;;;0.20;0.20;;;;;;;5.43;100.00;103211.72;10538303;28;20047;-87
2023/04/03 07:30:50;;;;;;;0.00;0.00;;;;;;;5.20;100.00;103232.75;10503852;28;20488;-86
2023/04/03 07:35:52;;;;;;;0.65;0.65;;;;;;;5.50;100.00;103246.34;10506442;28;20036;-87
2023/04/03 07:40:54;;;;;;;0.45;0.40;;;;;;;6.51;100.00;103253.81;10516657;28;20143;-88
2023/04/03 07:45:56;;;;;;;0.00;0.00;;;;;;;6.41;100.00;103282.00;10511055;28;20047;-88
2023/04/03 07:51:03;;;;;;;0.00;0.00;;;;;;;7.21;100.00;103272.09;10510671;28;20076;-89
2023/04/03 07:56:05;;;;;;;0.00;0.00;;;;;;;5.99;100.00;103294.00;10534143;28;20475;-87
2023/04/03 08:01:07;;;;;;;0.40;0.20;;;;;;;6.33;100.00;103294.22;10520839;28;20064;-88
2023/04/03 08:06:10;;;;;;;0.00;0.00;;;;;;;7.84;100.00;103288.84;10494495;28;20051;-90
2023/04/03 08:11:18;;;;;;;0.00;0.00;;;;;;;7.94;100.00;103286.19;10495608;28;20125;-89
2023/04/03 08:16:22;;;;;;;0.00;0.00;;;;;;;7.62;100.00;103297.50;10545909;28;20066;-89
2023/04/03 08:21:24;;;;;;;0.25;0.15;;;;;;;7.61;100.00;103295.69;10559854;28;20060;-89
2023/04/03 08:26:26;;;;;;;0.00;0.00;;;;;;;8.30;100.00;103300.78;10548216;28;20043;-89
2023/04/03 08:31:28;;;;;;;0.00;0.00;;;;;;;8.47;100.00;103300.34;10529286;28;20044;-88
2023/04/03 08:36:30;;;;;;;0.00;0.00;;;;;;;8.89;100.00;103304.25;10515854;28;20048;-88
2023/04/03 08:41:39;;;;;;;0.00;0.00;;;;;;;8.67;100.00;103308.63;10517822;28;20483;-88
2023/04/03 08:47:00;;;;;;;0.00;0.00;;;;;;;8.67;96.91;103308.63;10501910;28;20050;-88
2023/04/03 08:52:12;;;;;;;0.00;0.00;;;;;;;7.85;86.23;103316.31;10516440;28;20050;-88
2023/04/03 08:57:15;;;;;;;0.73;0.10;;;;;;;8.99;84.79;103312.59;10518153;28;20071;-86
2023/04/03 09:02:33;;;;;;;0.00;0.00;;;;;;;9.41;86.77;103312.94;10515792;28;20043;-88
2023/04/03 09:08:21;;;;;;;1.13;0.35;;;;;;;8.68;79.74;103316.44;10511631;28;20048;-90
2023/04/03 09:13:41;;;;;;;0.00;0.00;;;;;;;8.87;81.28;103312.59;10519739;28;20138;-88
2023/04/03 09:18:48;;;;;;;0.00;0.00;;;;;;;9.32;78.54;103318.34;10499584;28;20044;-89
2023/04/03 09:23:52;;;;;;;0.00;0.00;;;;;;;10.35;78.13;103316.69;10517222;28;20049;-86
2023/04/03 09:29:00;;;;;;;0.00;0.00;;;;;;;9.42;73.49;103310.47;10497509;28;20462;-88
2023/04/03 09:34:07;;;;;;;8.98;0.38;;;;;;;8.77;72.02;103316.19;10513457;28;20155;-89
2023/04/03 09:39:40;;;;;;;0.17;0.17;;;;;;;10.42;77.73;103303.44;10500549;28;20130;-87
2023/04/03 09:44:53;;;;;;;0.00;0.00;;;;;;;10.31;71.92;103299.25;10511538;28;20132;-87
2023/04/03 09:50:29;;;;;;;0.00;0.00;;;;;;;11.03;71.18;103287.50;10529968;28;20566;-88
2023/04/03 09:55:31;;;;;;;0.00;0.00;;;;;;;10.87;68.47;103298.53;10502351;28;20793;-86
2023/04/03 10:00:39;;;;;;;0.10;0.10;;;;;;;11.51;67.19;103284.34;10488423;28;20613;-86
2023/04/03 10:05:42;;;;;;;0.00;0.00;;;;;;;10.35;60.33;103290.91;10520553;28;20044;-86
2023/04/03 10:11:04;;;;;;;0.00;0.00;;;;;;;11.17;65.84;103266.84;10497251;28;20052;-87
2023/04/03 10:16:14;;;;;;;0.00;0.00;;;;;;;10.62;55.68;103272.88;10511817;28;20093;-86
2023/04/03 10:21:47;;;;;;;0.10;0.10;;;;;;;10.27;52.97;103264.66;10561140;28;20055;-85
2023/04/03 10:27:15;;;;;;;0.00;0.00;;;;;;;12.37;60.94;103252.34;10517749;28;20048;-87
2023/04/03 10:32:41;;;;;;;0.00;0.00;;;;;;;11.06;55.97;103241.25;10517170;28;20064;-86
2023/04/03 10:37:52;;;;;;;0.00;0.00;;;;;;;12.34;63.70;103253.06;10507736;28;20040;-87
2023/04/03 10:43:02;;;;;;;0.60;0.05;;;;;;;11.51;59.25;103243.06;10529704;28;20059;-86
2023/04/03 10:48:14;;;;;;;0.00;0.00;;;;;;;11.21;55.34;103242.97;10537559;28;20043;-86
2023/04/03 10:53:38;;;;;;;1.20;0.43;;;;;;;11.90;56.23;103234.19;10536355;28;20146;-86
2023/04/03 10:58:48;;;;;;;0.10;0.05;;;;;;;10.91;52.65;103233.47;10532569;28;20048;-85
2023/04/03 11:03:54;;;;;;;0.00;0.00;;;;;;;11.63;57.87;103232.56;10551371;28;20077;-86
2023/04/03 11:09:15;;;;;;;0.03;0.03;;;;;;;12.33;57.50;103220.25;10524516;28;20039;-87
2023/04/03 11:14:20;;;;;;;0.13;0.10;;;;;;;11.55;52.80;103208.88;10568548;27;20055;-87
2023/04/03 11:19:41;;;;;;;0.00;0.00;;;;;;;11.38;54.82;103220.81;10521117;28;20498;-88
2023/04/03 11:24:56;;;;;;;0.00;0.00;;;;;;;12.01;55.16;103216.75;10504091;28;20037;-87
2023/04/03 11:29:59;;;;;;;0.00;0.00;;;;;;;12.04;58.56;103201.41;10539835;28;20044;-86
2023/04/03 11:35:07;;;;;;;0.05;0.05;;;;;;;11.36;56.99;103202.63;10537676;28;20055;-86
2023/04/03 11:40:15;;;;;;;0.00;0.00;;;;;;;12.17;56.16;103197.84;10536020;27;20040;-85
2023/04/03 11:45:32;;;;;;;0.00;0.00;;;;;;;12.07;60.69;103203.28;10506489;28;20380;-87
2023/04/03 11:50:34;;;;;;;0.15;0.00;;;;;;;12.99;55.56;103196.19;10503428;28;20056;-87
2023/04/03 11:55:54;;;;;;;0.00;0.00;;;;;;;12.64;59.46;103184.88;10536042;28;20090;-86
2023/04/03 12:01:05;;;;;;;0.05;0.00;;;;;;;11.97;58.25;103181.22;10522276;28;20086;-86
2023/04/03 12:06:09;;;;;;;0.00;0.00;;;;;;;11.78;56.15;103176.66;10500499;28;20086;-86
2023/04/03 12:11:21;;;;;;;0.65;0.17;;;;;;;11.17;57.52;103164.50;10528530;28;20044;-85
2023/04/03 12:16:29;;;;;;;0.45;0.40;;;;;;;10.88;53.88;103165.34;10564956;28;20043;-87
2023/04/03 12:21:57;;;;;;;0.00;0.00;;;;;;;10.95;60.99;103167.50;10525857;28;20055;-87
2023/04/03 12:26:59;;;;;;;0.00;0.00;;;;;;;11.04;57.65;103168.06;10554456;28;20047;-87
2023/04/03 12:32:25;;;;;;;0.00;0.00;;;;;;;10.48;55.39;103161.19;10521741;28;20044;-85
2023/04/03 12:37:55;;;;;;;0.00;0.00;;;;;;;11.61;59.16;103152.44;10529518;28;20403;-87
2023/04/03 12:43:34;;;;;;;1.08;0.22;;;;;;;11.40;55.48;103160.72;10483236;28;20457;-85
2023/04/03 12:48:45;;;;;;;0.00;0.00;;;;;;;11.83;59.29;103144.25;10523976;28;20055;-88
2023/04/03 12:53:51;;;;;;;0.43;0.28;;;;;;;11.79;60.49;103138.81;10491838;28;20052;-85
2023/04/03 12:59:23;;;;;;;0.00;0.00;;;;;;;12.52;61.39;103128.19;10499955;28;20044;-86
2023/04/03 13:04:27;;;;;;;0.00;0.00;;;;;;;11.54;60.60;103132.25;10550556;28;20061;-87
2023/04/03 13:09:31;;;;;;;1.65;0.52;;;;;;;12.01;66.61;103126.34;10515060;28;20044;-87
2023/04/03 13:14:33;;;;;;;0.00;0.00;;;;;;;10.46;61.35;103125.00;10498813;28;20040;-86
2023/04/03 13:19:35;;;;;;;0.10;0.10;;;;;;;11.13;61.33;103117.81;10504770;28;20044;-86
2023/04/03 13:24:39;;;;;;;0.10;0.10;;;;;;;11.24;66.34;103103.84;10536909;28;20048;-86
2023/04/03 13:29:41;;;;;;;0.00;0.00;;;;;;;11.05;66.17;103102.78;10524070;28;20101;-86
2023/04/03 13:34:43;;;;;;;0.00;0.00;;;;;;;11.89;69.12;103092.94;10498318;28;20036;-86
2023/04/03 13:40:03;;;;;;;0.03;0.03;;;;;;;11.29;63.89;103101.53;10529442;28;20052;-87
2023/04/03 13:45:29;;;;;;;0.05;0.05;;;;;;;10.99;65.51;103091.19;10527473;28;20200;-86
2023/04/03 13:50:31;;;;;;;0.05;0.05;;;;;;;10.81;62.34;103091.00;10508579;28;20098;-87
2023/04/03 13:55:35;;;;;;;0.00;0.00;;;;;;;10.73;69.00;103087.94;10506324;28;20403;-85
2023/04/03 14:00:47;;;;;;;0.77;0.38;;;;;;;10.72;68.36;103092.22;10523597;28;20059;-85
2023/04/03 14:05:49;;;;;;;0.38;0.30;;;;;;;11.34;65.83;103084.63;10510223;28;20438;-86
2023/04/03 14:10:54;;;;;;;0.10;0.10;;;;;;;11.07;66.03;103083.09;10538516;28;20040;-84
2023/04/03 14:15:56;;;;;;;0.00;0.00;;;;;;;10.30;64.59;103079.34;10542733;28;20579;-84
2023/04/03 14:21:06;;;;;;;0.00;0.00;;;;;;;11.18;66.29;103073.41;10532954;28;20044;-82
2023/04/03 14:26:16;;;;;;;0.00;0.00;;;;;;;10.08;68.20;103078.78;10540067;28;20398;-82
2023/04/03 14:31:18;;;;;;;1.85;0.13;;;;;;;10.58;71.26;103072.44;10512030;28;20040;-82
2023/04/03 14:36:23;;;;;;;0.00;0.00;;;;;;;11.02;70.19;103069.06;10533459;28;20036;-82
2023/04/03 14:41:26;;;;;;;0.00;0.00;;;;;;;11.25;74.49;103054.03;10534653;28;20423;-82
2023/04/03 14:46:39;;;;;;;0.00;0.00;;;;;;;10.92;73.04;103056.41;10516279;28;20101;-84
2023/04/03 14:51:58;;;;;;;0.00;0.00;;;;;;;10.20;67.82;103052.91;10526188;28;20058;-83
2023/04/03 14:57:01;;;;;;;0.00;0.00;;;;;;;10.28;70.21;103042.28;10523323;28;20055;-82
2023/04/03 15:02:31;;;;;;;0.00;0.00;;;;;;;10.85;73.97;103036.22;10539141;28;20043;-82
2023/04/03 15:07:37;;;;;;;0.00;0.00;;;;;;;10.01;74.86;103036.31;10504641;28;20044;-81
2023/04/03 15:12:39;;;;;;;0.00;0.00;;;;;;;9.96;72.88;103042.84;10545442;28;20039;-85
2023/04/03 15:17:42;;;;;;;0.10;0.10;;;;;;;9.82;73.64;103039.41;10531209;28;20044;-81
2023/04/03 15:22:44;;;;;;;0.10;0.10;;;;;;;9.86;73.53;103031.09;10518718;28;20044;-83
2023/04/03 15:27:46;;;;;;;0.00;0.00;;;;;;;9.84;68.03;103036.16;10567375;28;20051;-82
2023/04/03 15:32:48;;;;;;;0.30;0.30;;;;;;;9.88;71.00;103036.31;10525116;28;20040;-82
2023/04/03 15:37:52;;;;;;;0.38;0.13;;;;;;;9.69;70.53;103041.19;10505503;28;20036;-84
2023/04/03 15:43:07;;;;;;;0.08;0.05;;;;;;;9.69;72.93;103050.63;10544223;28;20059;-82
2023/04/03 15:48:11;;;;;;;0.55;0.45;;;;;;;9.71;67.86;103051.63;10517486;28;20376;-81
2023/04/03 15:53:13;;;;;;;0.98;0.20;;;;;;;9.92;74.13;103046.91;10524373;28;20066;-80
2023/04/03 15:58:14;;;;;;;0.03;0.03;;;;;;;9.78;70.53;103042.56;10532779;28;20517;-82
2023/04/03 16:03:19;;;;;;;0.00;0.00;;;;;;;9.72;70.43;103048.22;10530269;28;20050;-81
2023/04/03 16:08:21;;;;;;;0.00;0.00;;;;;;;9.81;74.93;103042.78;10534069;28;20097;-81
2023/04/03 16:13:23;;;;;;;0.00;0.00;;;;;;;9.48;72.43;103056.16;10520611;28;20043;-82
2023/04/03 16:18:25;;;;;;;0.00;0.00;;;;;;;9.45;75.06;103048.22;10559269;28;20054;-82
2023/04/03 16:23:26;;;;;;;0.00;0.00;;;;;;;9.69;73.79;103037.75;10537972;28;20056;-81
2023/04/03 16:28:28;;;;;;;0.40;0.08;;;;;;;9.50;76.31;103039.13;10539079;28;20055;-83
2023/04/03 16:33:30;;;;;;;0.20;0.20;;;;;;;9.37;73.73;103039.13;10510886;28;20059;-83
2023/04/03 16:38:32;;;;;;;0.13;0.10;;;;;;;9.57;74.41;103036.97;10531307;28;20131;-82
2023/04/03 16:43:35;;;;;;;0.00;0.00;;;;;;;9.49;77.33;103032.19;10531215;28;20044;-84
2023/04/03 16:48:37;;;;;;;0.03;0.03;;;;;;;9.49;76.20;103032.19;10525727;28;20075;-84
2023/04/03 16:53:38;;;;;;;2.45;0.55;;;;;;;9.02;77.46;103042.84;10539134;28;20445;-84
2023/04/03 16:58:40;;;;;;;0.00;0.00;;;;;;;8.87;77.48;103046.16;10523918;28;20461;-85
2023/04/03 17:03:43;;;;;;;0.00;0.00;;;;;;;8.83;81.99;103043.28;10516180;28;20043;-83
2023/04/03 17:08:47;;;;;;;0.03;0.03;;;;;;;8.83;81.94;103041.59;10526749;28;20274;-84
2023/04/03 17:14:00;;;;;;;0.63;0.25;;;;;;;8.70;80.60;103041.56;10533938;28;20040;-86
2023/04/03 17:19:03;;;;;;;0.00;0.00;;;;;;;8.71;81.41;103043.34;10506798;28;20122;-87
2023/04/03 17:24:08;;;;;;;0.00;0.00;;;;;;;8.56;84.31;103038.94;10526858;28;20047;-88
2023/04/03 17:29:10;;;;;;;0.00;0.00;;;;;;;8.34;80.32;103038.22;10517178;28;20071;-87
2023/04/03 17:34:11;;;;;;;0.00;0.00;;;;;;;8.24;79.40;103035.00;10525298;28;20047;-85
2023/04/03 17:39:13;;;;;;;0.13;0.08;;;;;;;8.20;80.45;103037.25;10516187;28;20041;-86
2023/04/03 17:44:15;;;;;;;0.00;0.00;;;;;;;8.01;83.69;103032.50;10512907;28;20040;-87
2023/04/03 17:49:24;;;;;;;0.25;0.10;;;;;;;7.95;83.95;103040.66;10531278;28;20040;-85
2023/04/03 17:54:25;;;;;;;0.00;0.00;;;;;;;7.78;85.18;103042.91;10544781;28;20051;-86
2023/04/03 17:59:27;;;;;;;0.00;0.00;;;;;;;7.32;86.71;103046.38;10523051;28;20471;-86
2023/04/03 18:04:30;;;;;;;0.00;0.00;;;;;;;7.21;88.27;103049.03;10539872;28;20044;-86
2023/04/03 18:09:33;;;;;;;0.00;0.00;;;;;;;6.97;90.22;103051.53;10527960;28;20078;-86
2023/04/03 18:14:36;;;;;;;0.10;0.10;;;;;;;6.67;93.11;103045.88;10503598;28;20040;-86
2023/04/03 18:19:38;;;;;;;0.00;0.00;;;;;;;6.39;96.07;103048.00;10501118;28;20044;-86
2023/04/03 18:24:42;;;;;;;0.00;0.00;;;;;;;6.23;95.73;103051.03;10523515;28;20059;-86
2023/04/03 18:29:47;;;;;;;0.00;0.00;;;;;;;6.00;98.09;103049.22;10508961;28;20611;-86
2023/04/03 18:34:49;;;;;;;0.75;0.57;;;;;;;5.84;100.00;103053.09;10519185;28;20101;-87
2023/04/03 18:39:51;;;;;;;0.00;0.00;;;;;;;5.65;100.00;103058.38;10512866;28;20458;-80
2023/04/03 18:44:57;;;;;;;0.00;0.00;;;;;;;5.79;100.00;103053.47;10508893;28;20040;-80
2023/04/03 18:49:59;;;;;;;0.00;0.00;;;;;;;5.53;100.00;103052.28;10507616;28;20036;-79
2023/04/03 18:55:05;;;;;;;0.10;0.10;;;;;;;5.78;100.00;103059.38;10518626;28;20040;-80
2023/04/03 19:00:07;;;;;;;0.20;0.20;;;;;;;5.56;100.00;103057.63;10508437;28;20058;-81
2023/04/03 19:05:12;;;;;;;0.10;0.10;;;;;;;5.72;100.00;103064.91;10523403;28;20070;-81
2023/04/03 19:10:18;;;;;;;0.00;0.00;;;;;;;5.59;100.00;103068.13;10520122;28;20040;-81
2023/04/03 19:15:23;;;;;;;0.00;0.00;;;;;;;5.54;100.00;103060.09;10510746;28;20050;-81
2023/04/03 19:20:25;;;;;;;0.00;0.00;;;;;;;5.63;100.00;103066.72;10523317;28;20052;-82
2023/04/03 19:25:27;;;;;;;0.00;0.00;;;;;;;5.52;100.00;103068.41;10490743;28;20044;-81
2023/04/03 19:30:30;;;;;;;4.57;3.65;;;;;;;5.32;100.00;103075.34;10510266;28;20048;-81
2023/04/03 19:35:32;;;;;;;0.10;0.10;;;;;;;5.37;100.00;103070.59;10527474;28;20047;-80
2023/04/03 19:40:36;;;;;;;0.00;0.00;;;;;;;5.32;100.00;103067.69;10500430;28;20502;-79
2023/04/03 19:45:39;;;;;;;0.00;0.00;;;;;;;4.85;100.00;103062.06;10495796;28;20055;-80
2023/04/03 19:50:41;;;;;;;0.00;0.00;;;;;;;5.10;100.00;103062.44;10529537;28;20495;-80
2023/04/03 19:55:45;;;;;;;0.00;0.00;;;;;;;4.97;100.00;103054.53;10515548;28;20049;-80
2023/04/03 20:00:47;;;;;;;0.00;0.00;;;;;;;4.83;100.00;103066.13;10556645;28;20052;-80
2023/04/03 20:05:49;;;;;;;0.00;0.00;;;;;;;5.04;100.00;103067.03;10525909;28;20050;-80
2023/04/03 20:10:52;;;;;;;0.10;0.10;;;;;;;5.07;100.00;103055.41;10521698;28;20044;-82
2023/04/03 20:15:55;;;;;;;2.63;0.57;;;;;;;4.51;100.00;103059.19;10528014;28;20040;-80
2023/04/03 20:21:00;;;;;;;0.00;0.00;;;;;;;4.73;100.00;103057.69;10569802;28;20093;-80
2023/04/03 20:26:04;;;;;;;0.00;0.00;;;;;;;4.75;100.00;103061.28;10528258;28;20047;-79
2023/04/03 20:31:16;;;;;;;0.17;0.17;;;;;;;4.63;100.00;103072.09;10525082;28;20101;-82
2023/04/03 20:36:20;;;;;;;0.00;0.00;;;;;;;4.42;100.00;103067.88;10541476;28;20036;-81
2023/04/03 20:41:22;;;;;;;0.00;0.00;;;;;;;4.28;100.00;103065.78;10483343;28;20113;-80
2023/04/03 20:46:27;;;;;;;0.00;0.00;;;;;;;4.09;100.00;103071.81;10528990;28;20040;-80
2023/04/03 20:51:50;;;;;;;0.10;0.10;;;;;;;4.59;100.00;103063.28;10518000;28;20054;-84
2023/04/03 20:56:52;;;;;;;0.00;0.00;;;;;;;4.69;100.00;103065.88;10513542;28;20044;-84
2023/04/03 21:01:54;;;;;;;0.00;0.00;;;;;;;4.39;100.00;103071.81;10522688;28;20044;-81
2023/04/03 21:07:37;;;;;;;0.00;0.00;;;;;;;4.47;100.00;103082.66;10540088;28;20138;-82
2023/04/03 21:13:16;;;;;;;0.00;0.00;;;;;;;4.55;100.00;103071.47;10514503;28;20549;-82
2023/04/03 21:18:36;;;;;;;0.08;0.08;;;;;;;3.73;100.00;103067.84;10554792;28;20044;-82
2023/04/03 21:23:38;;;;;;;0.00;0.00;;;;;;;4.09;100.00;103056.53;10512706;28;20055;-82
2023/04/03 21:28:41;;;;;;;0.00;0.00;;;;;;;4.24;100.00;103049.31;10521295;28;20048;-82
2023/04/03 21:33:43;;;;;;;0.00;0.00;;;;;;;3.80;100.00;103049.78;10546450;28;20044;-82
2023/04/03 21:38:46;;;;;;;0.00;0.00;;;;;;;3.79;100.00;103045.44;10523048;28;20036;-80
2023/04/03 21:43:48;;;;;;;0.00;0.00;;;;;;;3.50;100.00;103045.38;10538690;28;20048;-80
2023/04/03 21:48:50;;;;;;;0.10;0.10;;;;;;;3.18;100.00;103049.38;10555301;28;20525;-79
2023/04/03 21:53:52;;;;;;;0.20;0.20;;;;;;;2.93;100.00;103038.63;10520990;28;20047;-80
2023/04/03 21:58:54;;;;;;;0.00;0.00;;;;;;;2.96;100.00;103046.56;10530005;28;20039;-79
2023/04/03 22:04:01;;;;;;;0.00;0.00;;;;;;;3.37;100.00;103056.16;10517142;28;20052;-80
2023/04/03 22:09:03;;;;;;;0.00;0.00;;;;;;;3.27;100.00;103045.88;10479510;28;20431;-80
2023/04/03 22:14:06;;;;;;;0.00;0.00;;;;;;;3.54;100.00;103034.72;10509682;28;20060;-80
2023/04/03 22:19:07;;;;;;;1.65;0.52;;;;;;;3.74;100.00;103028.84;10521024;28;20040;-79
2023/04/03 22:24:09;;;;;;;0.80;0.63;;;;;;;3.51;100.00;103034.44;10554416;28;20433;-79
2023/04/03 22:29:15;;;;;;;0.10;0.10;;;;;;;3.18;100.00;103031.56;10520658;28;20048;-79
2023/04/03 22:34:19;;;;;;;0.00;0.00;;;;;;;3.26;100.00;103023.69;10520200;28;20055;-79
2023/04/03 22:39:21;;;;;;;0.03;0.03;;;;;;;3.31;100.00;103019.94;10527662;28;20060;-80
2023/04/03 22:44:22;;;;;;;0.10;0.10;;;;;;;3.06;100.00;103017.72;10547138;28;20044;-80
2023/04/03 22:49:26;;;;;;;0.40;0.10;;;;;;;2.34;100.00;102989.97;10528439;28;20117;-80
2023/04/03 22:54:27;;;;;;;0.00;0.00;;;;;;;2.10;100.00;102964.78;10551011;28;20067;-79
2023/04/03 22:59:29;;;;;;;0.00;0.00;;;;;;;2.04;100.00;102952.44;10544180;28;20048;-79
2023/04/03 23:04:31;;;;;;;0.00;0.00;;;;;;;2.01;100.00;102957.22;10562156;28;20062;-79
2023/04/03 23:09:33;;;;;;;0.10;0.10;;;;;;;1.83;100.00;102961.47;10545885;28;20040;-80
2023/04/03 23:14:35;;;;;;;0.00;0.00;;;;;;;2.41;100.00;102986.38;10527209;28;20084;-80
2023/04/03 23:19:37;;;;;;;0.20;0.20;;;;;;;2.83;100.00;103002.91;10527285;28;20044;-80
2023/04/03 23:24:38;;;;;;;0.10;0.10;;;;;;;2.21;100.00;103009.94;10526991;28;20081;-80
2023/04/03 23:29:43;;;;;;;0.00;0.00;;;;;;;2.37;100.00;103020.81;10526964;28;20040;-80